Unicom:                    122.8

AWOS:                  118.275

Elevation           1458’ MSL

TPA:                   2500’ MSL

06/24:         5003’ L   75’ W

PAPI:       06/Left     24/Left

(Operate lights on unicom freq.)

Traffic Pattern: Left

Beacon: Sunset to Sunrise

Windsock: yes, lighted

Segmented Circle: No

 

Cleveland Center: 126.72/291.65

FSS: Altoona

[Source: ADDS]
METAR
KFKL 291119Z AUTO 12004KT 10SM BKN010 OVC031 02/02 A3011 RMK AO2 FZRANO =
KFKL 291125Z 2912/3012 13004KT P6SM OVC025 FM292000 15008KT P6SM SCT035 BKN250 FM300100 14014G22KT P6SM OVC100 FM300600 15011G24KT P6SM VCSH BKN060 WS020/19040KT FM301000 16012G26KT 6SM -SHRA OVC015 WS020/20050KT
TAF
KFKL 291125Z 2912/3012 13004KT P6SM OVC025 FM292000 15008KT P6SM SCT035 BKN250 FM300100 14014G22KT P6SM OVC100 FM300600 15011G24KT P6SM VCSH BKN060 WS020/19040KT FM301000 16012G26KT 6SM -SHRA OVC015 WS020/20050KT =
[Source: ADDS]
METAR
KDUJ 291115Z AUTO 13003KT 10SM OVC028 02/M01 A3012 RMK AO2 T00171011 =
KDUJ 291125Z 2912/3012 13006KT P6SM OVC025 FM291800 16008KT P6SM BKN025 FM292000 15008KT P6SM SCT035 BKN060 FM300500 14010G21KT P6SM BKN100 WS020/19040KT FM301000 16011G24KT 6SM -SHRA OVC025 WS020/19055KT
TAF
KDUJ 291125Z 2912/3012 13006KT P6SM OVC025 FM291800 16008KT P6SM BKN025 FM292000 15008KT P6SM SCT035 BKN060 FM300500 14010G21KT P6SM BKN100 WS020/19040KT FM301000 16011G24KT 6SM -SHRA OVC025 WS020/19055KT =

Welcome to Clarion County Airport.

We look forward to serving all of your aviation needs.


Clarion County Airport is a General Aviation, Business Class airport serving the Clarion County Area in Central Western Pennsylvania.  Our 5,003' asphalt runway and gps approaches are capable of serving most of the general aviation fleet in most weather conditions.


If you are planning a fuel stop while flying in Western Pennsylvania, consider paying us a visit. Our prices are some of the lowest in the state Check prices here ----> www.airnav.com/fuel and enter identifier KAXQ or see current prices below. We can have you fueled and taxiing out to the runway in about 10 minutes. Our current hours of operation are Monday- Saturday 8:00AM-4:00PM Sundays Unattended. Holiday closures are Christmas Day and Thanksgiving. If you require use of the facilities during the holidays or after hours please call ahead and someone will be there to assist you.


- Airport Manager -  


                             CURRENT FUEL PRICES       JET-A w/additive    $5.90           100LL     $6.43 


                              Self Service fueling available 24/7, credit card reader enabled. Center point fueling available upon request.

                                                           For after hours fueling assistance please contact airport manager Dave Everrett 814-221-1048